Time;durP1;ratioP1;P1;durP2;ratioP2;P2;SDS_P1;SDS_P2;PMS_P1;PMS_P2;Temp;Humidity;BMP_temperature;BMP_pressure;BME280_temperature;BME280_humidity;BME280_pressure;Samples;Min_cycle;Max_cycle;Signal;HPM_P1;HPM_P2
2022/05/25 00:00:11;;;;;;;4.63;4.23;;;13.30;99.90;;;;;;5110557;27;20726;-66
2022/05/25 00:02:40;;;;;;;4.50;4.10;;;13.30;99.90;;;;;;5108538;27;20596;-67
2022/05/25 00:05:11;;;;;;;4.93;4.53;;;13.30;99.90;;;;;;5108995;27;20651;-68
2022/05/25 00:07:39;;;;;;;4.93;4.53;;;13.30;99.90;;;;;;5108948;27;20243;-67
2022/05/25 00:10:10;;;;;;;4.70;4.30;;;13.30;99.90;;;;;;5109303;27;20794;-66
2022/05/25 00:12:39;;;;;;;5.40;4.90;;;13.30;99.90;;;;;;5109756;27;20265;-67
2022/05/25 00:15:11;;;;;;;5.70;5.10;;;13.20;99.90;;;;;;5108339;27;20259;-68
2022/05/25 00:17:39;;;;;;;5.10;4.60;;;13.20;99.90;;;;;;5110001;27;20240;-68
2022/05/25 00:20:10;;;;;;;5.07;4.63;;;13.30;99.90;;;;;;5111645;27;20254;-67
2022/05/25 00:22:44;;;;;;;5.43;4.93;;;13.20;99.90;;;;;;5111088;27;20243;-66
2022/05/25 00:25:15;;;;;;;7.30;4.60;;;13.20;99.90;;;;;;5107455;27;20245;-68
2022/05/25 00:27:44;;;;;;;5.40;4.90;;;13.10;99.90;;;;;;5108242;27;20241;-68
2022/05/25 00:30:13;;;;;;;5.50;5.00;;;13.10;99.90;;;;;;5110629;27;21028;-68
2022/05/25 00:32:42;;;;;;;7.07;5.73;;;13.10;99.90;;;;;;5108021;27;20237;-67
2022/05/25 00:35:12;;;;;;;5.60;5.10;;;13.00;99.90;;;;;;5108537;27;20272;-67
2022/05/25 00:37:41;;;;;;;5.43;4.93;;;13.10;99.90;;;;;;5108740;27;20240;-67
2022/05/25 00:40:11;;;;;;;5.43;4.83;;;13.10;99.90;;;;;;5109621;27;20241;-67
2022/05/25 00:42:41;;;;;;;5.60;5.10;;;13.10;99.90;;;;;;5109155;27;20783;-66
2022/05/25 00:45:11;;;;;;;5.07;4.67;;;13.10;99.90;;;;;;5109462;27;20240;-68
2022/05/25 00:47:41;;;;;;;5.63;5.10;;;13.10;99.90;;;;;;5108164;27;20768;-67
2022/05/25 00:50:12;;;;;;;5.63;5.13;;;13.10;99.90;;;;;;5109951;27;20245;-68
2022/05/25 00:52:43;;;;;;;5.17;4.77;;;13.10;99.90;;;;;;5108990;27;20252;-66
2022/05/25 00:55:14;;;;;;;5.37;4.97;;;13.10;99.90;;;;;;5111519;27;20735;-68
2022/05/25 00:57:46;;;;;;;5.17;4.73;;;13.10;99.90;;;;;;5110252;27;20241;-67
2022/05/25 01:00:18;;;;;;;5.37;4.87;;;13.10;99.90;;;;;;5109138;27;20573;-66
2022/05/25 01:02:49;;;;;;;5.60;5.07;;;13.10;99.90;;;;;;5108953;27;20240;-67
2022/05/25 01:05:22;;;;;;;5.50;5.00;;;13.00;99.90;;;;;;5106555;27;20254;-66
2022/05/25 01:08:05;;;;;;;5.30;4.90;;;12.90;99.90;;;;;;5109093;27;20779;-68
2022/05/25 01:10:45;;;;;;;5.00;4.57;;;12.90;99.90;;;;;;5110213;27;20238;-68
2022/05/25 01:13:25;;;;;;;5.53;5.00;;;12.90;99.90;;;;;;5106668;27;20274;-68
2022/05/25 01:16:07;;;;;;;5.43;4.70;;;13.00;99.90;;;;;;5109124;27;20232;-66
2022/05/25 01:18:37;;;;;;;6.30;4.93;;;13.00;99.90;;;;;;5109694;27;20243;-68
2022/05/25 01:21:14;;;;;;;4.93;4.43;;;12.90;99.90;;;;;;5108547;27;20236;-68
2022/05/25 01:24:03;;;;;;;5.60;5.00;;;13.00;99.90;;;;;;5106363;27;20760;-68
2022/05/25 01:27:10;;;;;;;5.43;4.93;;;12.90;99.90;;;;;;5108152;27;20244;-67
2022/05/25 01:29:51;;;;;;;4.60;4.30;;;12.80;99.90;;;;;;5109073;27;20704;-68
2022/05/25 01:32:27;;;;;;;4.60;4.20;;;12.90;99.90;;;;;;5109272;27;20248;-66
2022/05/25 01:35:02;;;;;;;4.93;4.40;;;12.90;99.90;;;;;;5108417;27;20233;-67
2022/05/25 01:37:39;;;;;;;4.50;4.10;;;12.90;99.90;;;;;;5107221;27;20652;-68
2022/05/25 01:40:15;;;;;;;5.03;4.53;;;12.90;99.90;;;;;;5109046;27;20315;-67
2022/05/25 01:42:47;;;;;;;4.40;4.00;;;12.80;99.90;;;;;;5105111;27;20251;-68
2022/05/25 01:45:19;;;;;;;5.40;4.33;;;12.80;99.90;;;;;;5107604;27;20240;-67
2022/05/25 01:47:50;;;;;;;4.60;4.20;;;12.90;99.90;;;;;;5107188;27;20315;-68
2022/05/25 01:50:23;;;;;;;4.23;3.87;;;12.90;99.90;;;;;;5106590;27;20247;-68
2022/05/25 01:52:58;;;;;;;4.40;4.00;;;12.90;99.90;;;;;;5106551;27;20241;-68
2022/05/25 01:55:30;;;;;;;5.60;4.37;;;12.90;99.90;;;;;;5110765;27;20753;-68
2022/05/25 01:58:03;;;;;;;3.90;3.60;;;12.90;99.90;;;;;;5110774;27;20922;-68
2022/05/25 02:00:36;;;;;;;4.90;4.47;;;13.00;99.90;;;;;;5107576;27;20245;-67
2022/05/25 02:06:06;;;;;;;4.20;3.80;;;13.00;99.90;;;;;;5106399;27;20282;-68
2022/05/25 02:08:43;;;;;;;4.60;3.90;;;13.00;99.90;;;;;;5107406;27;20291;-68
2022/05/25 02:11:26;;;;;;;4.50;4.10;;;13.00;99.90;;;;;;5107342;27;20265;-68
2022/05/25 02:14:02;;;;;;;5.13;4.63;;;13.00;99.90;;;;;;5104905;27;20275;-68
2022/05/25 02:16:42;;;;;;;4.87;4.43;;;13.00;99.90;;;;;;5108286;27;20285;-68
2022/05/25 02:19:18;;;;;;;4.43;4.10;;;12.90;99.90;;;;;;5109373;27;20707;-68
2022/05/25 02:21:53;;;;;;;4.87;4.47;;;12.90;99.90;;;;;;5108326;27;20288;-68
2022/05/25 02:24:29;;;;;;;4.47;4.03;;;12.90;99.90;;;;;;5104391;27;20681;-68
2022/05/25 02:27:04;;;;;;;4.87;4.47;;;12.80;99.90;;;;;;5096471;28;20336;-68
2022/05/25 02:29:37;;;;;;;4.83;4.37;;;12.80;99.90;;;;;;5106873;28;20245;-67
2022/05/25 02:32:11;;;;;;;4.93;4.50;;;12.70;99.90;;;;;;5107522;28;20609;-68
2022/05/25 02:34:43;;;;;;;5.07;4.40;;;12.80;99.90;;;;;;5106890;28;20237;-68
2022/05/25 02:37:12;;;;;;;5.13;4.73;;;12.70;99.90;;;;;;5109031;28;20244;-68
2022/05/25 02:39:40;;;;;;;5.20;4.77;;;12.60;99.90;;;;;;5106838;28;20733;-68
2022/05/25 02:42:13;;;;;;;4.77;4.23;;;12.60;99.90;;;;;;5107912;28;20240;-68
2022/05/25 02:44:42;;;;;;;4.70;4.30;;;12.50;99.90;;;;;;5107249;28;20321;-68
2022/05/25 02:47:12;;;;;;;4.87;4.47;;;12.50;99.90;;;;;;5106618;28;20225;-68
2022/05/25 02:49:40;;;;;;;4.60;4.20;;;12.50;99.90;;;;;;5109213;28;20240;-68
2022/05/25 02:52:10;;;;;;;5.10;4.70;;;12.50;99.90;;;;;;5107242;28;20246;-68
2022/05/25 02:54:39;;;;;;;5.17;4.67;;;12.50;99.90;;;;;;5105804;28;20236;-68
2022/05/25 02:57:07;;;;;;;5.57;4.60;;;12.50;99.90;;;;;;5106751;28;20237;-67
2022/05/25 02:59:36;;;;;;;5.13;4.63;;;12.50;99.90;;;;;;5106877;27;20333;-68
2022/05/25 03:02:05;;;;;;;5.47;4.97;;;12.60;99.90;;;;;;5109142;27;20233;-67
2022/05/25 03:04:37;;;;;;;4.80;4.40;;;12.50;99.90;;;;;;5108892;27;20772;-68
2022/05/25 03:07:05;;;;;;;5.57;4.80;;;12.50;99.90;;;;;;5111328;27;20236;-68
2022/05/25 03:09:35;;;;;;;5.20;4.80;;;12.40;99.90;;;;;;5109981;27;20239;-66
2022/05/25 03:12:03;;;;;;;5.93;5.03;;;12.40;99.90;;;;;;5111626;27;20248;-67
2022/05/25 03:14:32;;;;;;;5.30;4.90;;;12.50;99.90;;;;;;5110102;27;20232;-67
2022/05/25 03:17:06;;;;;;;5.00;4.60;;;12.40;99.90;;;;;;5110895;27;20348;-66
2022/05/25 03:19:36;;;;;;;5.87;5.27;;;12.50;99.90;;;;;;5110059;27;20252;-67
2022/05/25 03:22:04;;;;;;;5.90;5.40;;;12.50;99.90;;;;;;5110582;27;20247;-67
2022/05/25 03:24:32;;;;;;;6.37;5.33;;;12.50;99.90;;;;;;5107361;27;20700;-68
2022/05/25 03:27:00;;;;;;;5.87;5.30;;;12.40;99.90;;;;;;5110474;27;20228;-68
2022/05/25 03:29:30;;;;;;;5.90;5.40;;;12.40;99.90;;;;;;5111137;27;20241;-66
2022/05/25 03:31:59;;;;;;;6.37;5.77;;;12.40;99.90;;;;;;5110067;27;20270;-66
2022/05/25 03:34:28;;;;;;;5.83;5.33;;;12.30;99.90;;;;;;5110701;27;20276;-67
2022/05/25 03:36:57;;;;;;;6.20;5.60;;;12.20;99.90;;;;;;5112068;27;20236;-68
2022/05/25 03:39:28;;;;;;;6.67;6.07;;;12.20;99.90;;;;;;5115146;27;20287;-66
2022/05/25 03:41:59;;;;;;;7.13;5.93;;;12.10;99.90;;;;;;5112394;27;21017;-67
2022/05/25 03:44:28;;;;;;;6.23;5.63;;;12.10;99.90;;;;;;5108873;27;20240;-67
2022/05/25 03:46:57;;;;;;;6.60;6.10;;;12.10;99.90;;;;;;5108303;27;20724;-67
2022/05/25 03:49:26;;;;;;;6.97;5.83;;;12.10;99.90;;;;;;5110223;27;20766;-65
2022/05/25 03:51:54;;;;;;;6.23;5.63;;;12.00;99.90;;;;;;5108748;27;20240;-68
2022/05/25 03:54:24;;;;;;;6.83;6.10;;;12.10;99.90;;;;;;5108744;27;20304;-67
2022/05/25 03:56:53;;;;;;;6.77;6.07;;;12.10;99.90;;;;;;5114071;27;20237;-67
2022/05/25 03:59:21;;;;;;;6.97;6.33;;;12.20;99.90;;;;;;5113248;27;20335;-68
2022/05/25 04:01:49;;;;;;;6.43;5.93;;;12.20;99.90;;;;;;5117116;27;20964;-68
2022/05/25 04:04:18;;;;;;;7.10;6.40;;;12.20;99.90;;;;;;5110906;27;20243;-67
2022/05/25 04:06:46;;;;;;;6.90;6.30;;;12.30;99.90;;;;;;5112434;27;20251;-67
2022/05/25 04:09:14;;;;;;;6.63;6.13;;;12.30;99.90;;;;;;5111297;27;20228;-67
2022/05/25 04:11:45;;;;;;;7.13;6.50;;;12.40;99.90;;;;;;5108581;27;20233;-67
2022/05/25 04:14:15;;;;;;;7.17;6.47;;;12.40;99.90;;;;;;5107859;27;20758;-68
2022/05/25 04:16:44;;;;;;;7.13;6.43;;;12.50;99.90;;;;;;5111063;27;20234;-66
2022/05/25 04:19:13;;;;;;;7.43;6.70;;;12.50;99.90;;;;;;5109061;27;20236;-67
2022/05/25 04:21:42;;;;;;;7.50;6.80;;;12.60;99.90;;;;;;5111216;27;20240;-68
2022/05/25 04:24:12;;;;;;;7.60;6.90;;;12.70;99.90;;;;;;5107837;27;20221;-68
2022/05/25 04:26:41;;;;;;;7.40;6.80;;;12.70;99.90;;;;;;5108913;27;20243;-67
2022/05/25 04:29:10;;;;;;;7.30;6.60;;;12.80;99.90;;;;;;5113104;27;20245;-67
2022/05/25 04:31:38;;;;;;;7.73;6.93;;;12.90;99.90;;;;;;5109821;27;20236;-67
2022/05/25 04:34:09;;;;;;;7.03;6.33;;;13.00;99.90;;;;;;5110330;27;20697;-67
2022/05/25 04:36:40;;;;;;;7.50;6.50;;;13.00;99.90;;;;;;5103779;27;20610;-67
2022/05/25 04:39:08;;;;;;;6.87;6.27;;;13.10;99.90;;;;;;5109438;27;21208;-67
2022/05/25 04:41:37;;;;;;;7.07;6.40;;;13.10;99.90;;;;;;5106833;27;20286;-67
2022/05/25 04:44:05;;;;;;;7.60;6.93;;;13.20;99.90;;;;;;5104205;27;20245;-67
2022/05/25 04:46:35;;;;;;;7.50;6.80;;;13.30;99.90;;;;;;5107267;27;20704;-67
2022/05/25 04:49:03;;;;;;;7.30;6.60;;;13.30;99.90;;;;;;5106919;27;20659;-67
2022/05/25 04:51:31;;;;;;;7.43;6.83;;;13.40;99.90;;;;;;5109154;27;20243;-67
2022/05/25 04:54:00;;;;;;;6.67;6.07;;;13.50;99.90;;;;;;5109201;27;20332;-67
2022/05/25 04:59:13;;;;;;;8.07;5.97;;;13.80;99.90;;;;;;5111651;27;20245;-67
2022/05/25 05:01:43;;;;;;;6.77;6.17;;;13.90;99.90;;;;;;5113350;27;20635;-67
2022/05/25 05:04:11;;;;;;;7.07;6.27;;;13.90;99.90;;;;;;5112636;27;20241;-68
2022/05/25 05:06:39;;;;;;;9.80;5.83;;;14.00;99.90;;;;;;5111372;27;20713;-67
2022/05/25 05:09:08;;;;;;;6.13;5.53;;;14.20;99.90;;;;;;5108734;27;20730;-67
2022/05/25 05:11:37;;;;;;;7.20;6.53;;;14.40;99.90;;;;;;5110321;27;20241;-68
2022/05/25 05:14:06;;;;;;;7.27;6.60;;;14.50;99.90;;;;;;5109719;27;20688;-68
2022/05/25 05:16:34;;;;;;;7.07;6.37;;;14.50;99.90;;;;;;5110061;27;20243;-68
2022/05/25 05:19:16;;;;;;;6.27;5.60;;;14.60;99.90;;;;;;5097090;27;20263;-66
2022/05/25 05:21:59;;;;;;;7.17;6.43;;;14.70;99.90;;;;;;5095853;27;20850;-68
2022/05/25 05:24:28;;;;;;;5.80;5.30;;;14.80;99.90;;;;;;5106234;27;20608;-68
2022/05/25 05:26:57;;;;;;;6.60;6.10;;;15.00;99.90;;;;;;5108354;27;20548;-68
2022/05/25 05:29:26;;;;;;;5.80;5.17;;;15.10;99.90;;;;;;5107913;27;20273;-67
2022/05/25 05:31:54;;;;;;;6.77;6.07;;;15.20;99.90;;;;;;5106972;27;20701;-67
2022/05/25 05:34:27;;;;;;;6.43;5.83;;;15.40;99.90;;;;;;5106731;27;20236;-68
2022/05/25 05:36:59;;;;;;;6.27;5.77;;;15.50;99.90;;;;;;5108507;27;20328;-67
2022/05/25 05:39:30;;;;;;;6.80;6.17;;;15.50;99.90;;;;;;5107520;27;20241;-67
2022/05/25 05:42:03;;;;;;;6.60;6.07;;;15.60;99.90;;;;;;5107270;27;20241;-68
2022/05/25 05:44:36;;;;;;;6.10;5.50;;;15.70;99.90;;;;;;5107589;27;20734;-67
2022/05/25 05:47:07;;;;;;;6.80;6.20;;;15.90;99.90;;;;;;5106116;27;20544;-67
2022/05/25 05:49:38;;;;;;;6.93;5.57;;;16.10;99.90;;;;;;5107506;27;20265;-68
2022/05/25 05:52:07;;;;;;;5.80;5.27;;;16.30;99.90;;;;;;5107291;27;20242;-69
2022/05/25 05:54:36;;;;;;;5.63;5.00;;;16.50;99.90;;;;;;5104264;27;20242;-69
2022/05/25 05:57:05;;;;;;;6.10;5.50;;;16.60;99.90;;;;;;5108356;27;20229;-69
2022/05/25 05:59:33;;;;;;;5.83;5.27;;;16.80;99.90;;;;;;5106040;27;20230;-66
2022/05/25 06:02:01;;;;;;;6.13;5.53;;;16.90;99.90;;;;;;5106518;27;20634;-69
2022/05/25 06:04:30;;;;;;;5.63;5.10;;;16.90;99.90;;;;;;5105101;27;20242;-69
2022/05/25 06:07:03;;;;;;;6.33;5.80;;;17.00;99.90;;;;;;5108558;27;21072;-68
2022/05/25 06:09:32;;;;;;;6.13;5.53;;;17.10;99.90;;;;;;5107050;27;20256;-68
2022/05/25 06:12:00;;;;;;;6.63;5.37;;;17.20;99.90;;;;;;5107994;27;20236;-68
2022/05/25 06:14:28;;;;;;;6.30;5.80;;;17.10;99.90;;;;;;5105960;27;20803;-69
2022/05/25 06:19:41;;;;;;;6.80;5.73;;;17.50;99.90;;;;;;5104822;27;20684;-69
2022/05/25 06:22:13;;;;;;;5.23;4.73;;;17.70;99.90;;;;;;5105377;27;20663;-69
2022/05/25 06:24:44;;;;;;;5.73;5.27;;;17.90;99.90;;;;;;5106184;27;20316;-69
2022/05/25 06:27:13;;;;;;;6.50;5.73;;;18.10;99.90;;;;;;5106658;27;20643;-69
2022/05/25 06:29:43;;;;;;;7.03;5.57;;;18.20;99.90;;;;;;5106415;28;20592;-69
2022/05/25 06:32:14;;;;;;;5.70;5.20;;;18.20;99.90;;;;;;5106138;28;20241;-69
2022/05/25 06:37:39;;;;;;;6.23;5.37;;;18.50;99.90;;;;;;3480883;22;20243;-63
2022/05/25 06:40:09;;;;;;;6.00;5.43;;;18.60;99.90;;;;;;5031156;28;20237;-64
2022/05/25 06:42:41;;;;;;;6.83;5.57;;;18.70;99.90;;;;;;5031667;28;20920;-65
2022/05/25 06:45:11;;;;;;;7.10;5.60;;;18.50;99.90;;;;;;5031002;28;20245;-63
2022/05/25 06:47:39;;;;;;;6.10;5.60;;;18.30;99.90;;;;;;5029700;28;20241;-64
2022/05/25 06:50:08;;;;;;;5.73;5.23;;;18.50;99.90;;;;;;5033375;28;20250;-63
2022/05/25 06:52:36;;;;;;;6.90;5.30;;;18.70;99.90;;;;;;5031077;28;20247;-64
2022/05/25 06:55:07;;;;;;;5.67;4.70;;;18.90;99.90;;;;;;5031980;28;20237;-63
2022/05/25 06:57:35;;;;;;;5.60;4.87;;;19.00;99.90;;;;;;5031137;28;20251;-63
2022/05/25 07:00:05;;;;;;;5.87;5.07;;;19.10;99.90;;;;;;5030283;28;20312;-63
2022/05/25 07:02:33;;;;;;;5.90;5.30;;;19.00;99.90;;;;;;5033552;28;20233;-63
2022/05/25 07:05:02;;;;;;;7.03;5.23;;;19.20;99.90;;;;;;5030715;28;20240;-63
2022/05/25 07:07:32;;;;;;;5.63;5.00;;;19.40;99.90;;;;;;5030550;28;20239;-64
2022/05/25 07:10:00;;;;;;;5.87;4.17;;;19.50;99.90;;;;;;5030423;28;20720;-64
2022/05/25 07:12:31;;;;;;;5.80;4.73;;;19.30;99.90;;;;;;5030291;28;20747;-65
2022/05/25 07:15:00;;;;;;;5.93;4.40;;;19.40;99.90;;;;;;5029753;28;20236;-63
2022/05/25 07:17:28;;;;;;;5.00;4.50;;;19.70;99.90;;;;;;5032444;28;20741;-64
2022/05/25 07:19:57;;;;;;;5.80;4.13;;;19.70;99.90;;;;;;5033268;28;20243;-64
2022/05/25 07:22:25;;;;;;;4.67;4.00;;;19.70;99.90;;;;;;5032566;28;20265;-64
2022/05/25 07:24:53;;;;;;;5.07;4.23;;;19.80;99.90;;;;;;5028552;28;20267;-64
2022/05/25 07:27:21;;;;;;;5.27;4.13;;;19.80;99.90;;;;;;5032329;28;20242;-64
2022/05/25 07:29:50;;;;;;;5.73;4.47;;;19.80;99.90;;;;;;5029761;28;20340;-65
2022/05/25 07:32:22;;;;;;;4.73;4.33;;;20.00;99.90;;;;;;5032723;28;20606;-63
2022/05/25 07:34:55;;;;;;;4.37;3.93;;;20.10;99.90;;;;;;5028549;28;20810;-65
2022/05/25 07:37:32;;;;;;;5.23;3.83;;;20.30;99.90;;;;;;5030510;28;20330;-64
2022/05/25 07:40:05;;;;;;;5.57;3.60;;;20.50;99.90;;;;;;5029031;28;20244;-64
2022/05/25 07:42:33;;;;;;;4.57;3.80;;;20.80;99.90;;;;;;5032365;28;20246;-63
2022/05/25 07:45:05;;;;;;;4.33;3.93;;;20.90;99.90;;;;;;5031543;28;20242;-63
2022/05/25 07:47:34;;;;;;;4.30;3.90;;;21.00;99.90;;;;;;5026915;28;20244;-63
2022/05/25 07:50:04;;;;;;;5.63;4.60;;;21.20;99.90;;;;;;5029420;28;20670;-63
2022/05/25 07:52:35;;;;;;;4.80;4.40;;;21.20;99.90;;;;;;5029191;28;20240;-63
2022/05/25 07:55:06;;;;;;;5.27;4.43;;;20.90;99.90;;;;;;5029723;28;20693;-63
2022/05/25 07:57:34;;;;;;;4.17;3.77;;;21.00;99.90;;;;;;5032108;28;20244;-63
2022/05/25 08:00:05;;;;;;;4.33;3.93;;;21.20;99.90;;;;;;5029802;28;20327;-63
2022/05/25 08:05:48;;;;;;;4.53;4.17;;;21.50;99.90;;;;;;4969740;28;20324;-63
2022/05/25 08:08:19;;;;;;;4.20;3.80;;;21.80;99.90;;;;;;4968040;28;20246;-65
2022/05/25 08:10:51;;;;;;;4.97;4.13;;;21.40;99.90;;;;;;5000296;28;20276;-65
2022/05/25 08:13:19;;;;;;;8.57;4.60;;;21.20;99.90;;;;;;5031637;28;21634;-63
2022/05/25 08:15:49;;;;;;;4.83;3.80;;;21.40;99.90;;;;;;5036726;28;20324;-64
2022/05/25 08:18:19;;;;;;;5.03;4.43;;;21.60;99.90;;;;;;5036032;28;20244;-64
2022/05/25 08:20:47;;;;;;;5.43;3.60;;;21.60;99.90;;;;;;5033424;28;20254;-64
2022/05/25 08:23:17;;;;;;;4.10;3.30;;;21.70;99.90;;;;;;5031393;28;20262;-64
2022/05/25 08:25:46;;;;;;;4.53;3.40;;;22.00;99.90;;;;;;5032221;28;20262;-63
2022/05/25 08:28:14;;;;;;;4.27;3.97;;;22.00;99.90;;;;;;5031025;28;20236;-63
2022/05/25 08:30:45;;;;;;;4.20;3.60;;;21.80;99.90;;;;;;5031397;28;20249;-63
2022/05/25 08:33:17;;;;;;;4.33;3.97;;;21.90;99.90;;;;;;5029114;28;20322;-63
2022/05/25 08:35:45;;;;;;;4.13;3.63;;;22.20;99.90;;;;;;5028036;28;20255;-63
2022/05/25 08:38:14;;;;;;;4.80;3.40;;;22.10;99.90;;;;;;5029117;28;20239;-63
2022/05/25 08:40:44;;;;;;;4.50;3.37;;;22.20;99.90;;;;;;5026961;28;20322;-63
2022/05/25 08:43:18;;;;;;;5.17;3.10;;;22.30;99.90;;;;;;5031628;28;20235;-63
2022/05/25 08:45:50;;;;;;;3.70;3.10;;;22.30;99.90;;;;;;5033063;28;20250;-64
2022/05/25 08:48:23;;;;;;;3.23;2.90;;;22.30;99.90;;;;;;5030359;28;20252;-64
2022/05/25 08:50:55;;;;;;;4.50;3.20;;;22.30;99.90;;;;;;5029997;28;20636;-63
2022/05/25 08:53:30;;;;;;;5.20;3.20;;;22.40;99.90;;;;;;5028570;28;20702;-65
2022/05/25 08:56:03;;;;;;;3.47;2.87;;;22.80;99.90;;;;;;5027698;28;20228;-64
2022/05/25 08:58:41;;;;;;;4.37;3.30;;;22.70;99.90;;;;;;5028089;28;20736;-63
2022/05/25 09:01:12;;;;;;;4.60;3.10;;;22.90;99.90;;;;;;5028515;28;20314;-62
2022/05/25 09:03:49;;;;;;;3.30;2.97;;;23.20;99.90;;;;;;5027735;28;20240;-64
2022/05/25 09:06:27;;;;;;;4.03;3.03;;;23.20;99.90;;;;;;5030325;28;20709;-64
2022/05/25 09:09:02;;;;;;;5.53;3.73;;;23.10;99.90;;;;;;5036562;28;20613;-63
2022/05/25 09:11:38;;;;;;;3.37;3.07;;;22.50;99.90;;;;;;5034899;28;20278;-63
2022/05/25 09:14:14;;;;;;;2.93;2.17;;;22.30;99.90;;;;;;5030386;28;20255;-65
2022/05/25 09:16:44;;;;;;;2.00;1.73;;;22.50;99.90;;;;;;5031608;28;20243;-63
2022/05/25 09:19:18;;;;;;;2.60;2.17;;;22.80;99.90;;;;;;5033154;28;20232;-63
2022/05/25 09:21:52;;;;;;;2.17;1.60;;;22.70;99.90;;;;;;5031714;28;20287;-63
2022/05/25 09:24:22;;;;;;;2.10;1.90;;;23.00;99.90;;;;;;5027860;28;20793;-63
2022/05/25 09:26:51;;;;;;;2.50;1.60;;;22.90;99.90;;;;;;5029621;28;20248;-63
2022/05/25 09:29:21;;;;;;;2.27;2.07;;;22.70;99.90;;;;;;5027172;28;20243;-63
2022/05/25 09:31:53;;;;;;;2.00;1.60;;;22.50;99.90;;;;;;5028234;28;20236;-63
2022/05/25 09:34:34;;;;;;;3.23;1.60;;;22.70;99.90;;;;;;5028916;28;20247;-64
2022/05/25 09:37:09;;;;;;;2.30;1.80;;;23.00;99.90;;;;;;5031013;28;20742;-64
2022/05/25 09:39:43;;;;;;;3.70;1.70;;;22.30;99.90;;;;;;5031898;28;20294;-63
2022/05/25 09:42:18;;;;;;;2.83;2.00;;;22.00;99.90;;;;;;5030906;28;20711;-63
2022/05/25 09:44:52;;;;;;;8.33;2.43;;;21.90;99.90;;;;;;5030379;28;20319;-63
2022/05/25 09:47:25;;;;;;;3.60;1.93;;;22.70;99.90;;;;;;5029947;28;20239;-65
2022/05/25 09:49:58;;;;;;;2.90;1.80;;;22.80;99.90;;;;;;5029303;28;20235;-63
2022/05/25 09:52:35;;;;;;;1.77;1.60;;;22.60;99.90;;;;;;5026978;28;20804;-64
2022/05/25 09:55:07;;;;;;;2.27;1.60;;;22.30;99.90;;;;;;5107782;22;20319;-63
2022/05/25 09:57:39;;;;;;;2.33;1.47;;;22.00;99.90;;;;;;5078909;22;20261;-76
2022/05/25 10:00:11;;;;;;;1.97;1.40;;;22.50;99.90;;;;;;5069459;22;20242;-68
2022/05/25 10:02:48;;;;;;;1.90;1.70;;;23.20;99.90;;;;;;5046807;28;20339;-68
2022/05/25 10:05:23;;;;;;;2.10;1.40;;;23.50;99.90;;;;;;5041961;28;20301;-69
2022/05/25 10:07:55;;;;;;;2.90;1.90;;;23.50;99.90;;;;;;5044075;28;20318;-69
2022/05/25 10:10:33;;;;;;;2.03;1.30;;;23.00;99.90;;;;;;5042419;28;20829;-69
2022/05/25 10:13:13;;;;;;;1.93;1.63;;;22.80;99.90;;;;;;5042657;28;20749;-68
2022/05/25 10:15:51;;;;;;;1.67;1.50;;;22.50;99.90;;;;;;5043877;28;20242;-70
2022/05/25 10:18:35;;;;;;;2.70;1.37;;;22.30;99.90;;;;;;5043082;28;20239;-69
2022/05/25 10:21:10;;;;;;;1.93;1.20;;;22.00;99.90;;;;;;5042819;28;20284;-69
2022/05/25 10:23:43;;;;;;;1.73;1.37;;;22.00;99.90;;;;;;5042471;28;20235;-69
2022/05/25 10:26:13;;;;;;;1.87;1.40;;;22.00;99.90;;;;;;5043109;28;20701;-69
2022/05/25 10:28:48;;;;;;;3.50;1.40;;;22.20;99.90;;;;;;5043625;28;20766;-69
2022/05/25 10:37:14;;;;;;;1.30;1.20;;;22.90;99.90;;;;;;5041002;28;20247;-68
2022/05/25 10:39:45;;;;;;;1.47;1.20;;;22.70;99.90;;;;;;5041020;28;20630;-70
2022/05/25 10:42:18;;;;;;;2.57;1.30;;;22.40;99.90;;;;;;5041598;28;20571;-69
2022/05/25 10:45:01;;;;;;;1.10;1.00;;;22.30;99.90;;;;;;5041969;28;20358;-69
2022/05/25 10:47:44;;;;;;;1.60;0.90;;;22.70;99.90;;;;;;5041936;28;20244;-68
2022/05/25 10:50:17;;;;;;;2.20;1.13;;;23.10;99.90;;;;;;5041910;28;20247;-69
2022/05/25 10:52:50;;;;;;;0.70;0.70;;;23.80;99.90;;;;;;5040936;28;20322;-67
2022/05/25 10:55:19;;;;;;;2.67;0.90;;;23.90;99.90;;;;;;5043528;28;20246;-69
2022/05/25 10:58:10;;;;;;;1.83;0.90;;;23.50;99.90;;;;;;5043985;28;20238;-68
2022/05/25 11:00:50;;;;;;;5.40;1.20;;;23.20;99.90;;;;;;5020875;28;20235;-68
2022/05/25 11:04:06;;;;;;;1.97;0.90;;;23.60;99.90;;;;;;5022189;28;20250;-68
2022/05/25 11:06:54;;;;;;;1.90;0.97;;;23.80;99.90;;;;;;5021733;28;20251;-69
2022/05/25 11:09:44;;;;;;;3.13;0.77;;;23.40;99.90;;;;;;5023469;28;20236;-68
2022/05/25 11:12:25;;;;;;;3.63;1.10;;;23.00;99.90;;;;;;5021228;28;20656;-69
2022/05/25 11:15:06;;;;;;;1.70;0.90;;;23.10;99.90;;;;;;5021977;28;20263;-69
2022/05/25 11:17:49;;;;;;;1.13;0.80;;;23.40;99.90;;;;;;5019490;28;20250;-70
2022/05/25 11:20:25;;;;;;;1.90;0.83;;;23.90;99.90;;;;;;5020912;28;20799;-68
2022/05/25 11:23:09;;;;;;;1.70;0.77;;;24.00;99.90;;;;;;5023084;28;20232;-69
2022/05/25 11:25:52;;;;;;;0.97;0.70;;;23.90;99.90;;;;;;5023495;28;20730;-69
2022/05/25 11:28:29;;;;;;;0.90;0.60;;;23.20;99.90;;;;;;5023730;28;20247;-69
2022/05/25 11:31:08;;;;;;;2.60;0.90;;;22.70;99.90;;;;;;5024041;28;20650;-69
2022/05/25 11:33:55;;;;;;;2.67;0.70;;;22.70;99.90;;;;;;5023077;28;20237;-69
2022/05/25 11:36:58;;;;;;;2.13;0.70;;;22.90;99.90;;;;;;5023265;28;20358;-69
2022/05/25 11:39:44;;;;;;;1.90;0.80;;;22.40;99.90;;;;;;5025494;28;20599;-69
2022/05/25 11:42:27;;;;;;;3.60;1.37;;;22.10;99.90;;;;;;5024376;28;20243;-69
2022/05/25 11:45:09;;;;;;;1.37;0.83;;;22.10;99.90;;;;;;5023314;28;20268;-69
2022/05/25 11:48:12;;;;;;;1.43;0.67;;;22.30;99.90;;;;;;5033447;28;20367;-69
2022/05/25 11:50:47;;;;;;;3.40;0.60;;;22.30;99.90;;;;;;5023698;28;20231;-68
2022/05/25 11:53:37;;;;;;;1.63;0.70;;;22.20;99.90;;;;;;5024763;28;20223;-69
2022/05/25 11:56:24;;;;;;;0.63;0.63;;;22.40;99.90;;;;;;5023331;28;20327;-69
2022/05/25 11:59:10;;;;;;;0.70;0.70;;;22.80;99.90;;;;;;5025882;28;20260;-68
2022/05/25 12:01:47;;;;;;;4.27;0.90;;;23.10;99.90;;;;;;5029264;28;20679;-69
2022/05/25 12:04:36;;;;;;;0.83;0.83;;;23.30;99.90;;;;;;5031281;28;20259;-68
2022/05/25 12:07:24;;;;;;;2.90;0.70;;;22.90;99.90;;;;;;5026647;28;20723;-69
2022/05/25 12:10:09;;;;;;;0.93;0.50;;;22.50;99.90;;;;;;5023721;28;20301;-69
2022/05/25 12:12:42;;;;;;;1.80;0.60;;;22.10;99.90;;;;;;5022992;28;20801;-68
2022/05/25 12:15:18;;;;;;;0.87;0.70;;;22.20;99.90;;;;;;5021727;28;20717;-70
2022/05/25 12:17:57;;;;;;;2.00;0.70;;;22.40;99.90;;;;;;5021920;28;20324;-69
2022/05/25 12:20:30;;;;;;;1.83;0.70;;;22.50;99.90;;;;;;5022765;28;20259;-68
2022/05/25 12:23:04;;;;;;;4.50;1.30;;;22.70;99.90;;;;;;5022539;28;20958;-68
2022/05/25 12:25:35;;;;;;;2.00;0.80;;;22.80;99.90;;;;;;5025211;28;20231;-68
2022/05/25 12:28:04;;;;;;;3.63;0.90;;;22.80;99.90;;;;;;5024455;28;20310;-68
2022/05/25 12:30:37;;;;;;;5.43;1.40;;;22.60;99.90;;;;;;5022939;28;20236;-68
2022/05/25 12:33:09;;;;;;;3.30;1.03;;;22.70;99.90;;;;;;5021473;28;20249;-68
2022/05/25 12:35:39;;;;;;;1.93;0.80;;;22.50;99.90;;;;;;5022086;28;20278;-69
2022/05/25 12:38:09;;;;;;;4.07;0.93;;;22.40;99.90;;;;;;5024961;28;20656;-67
2022/05/25 12:40:46;;;;;;;3.87;0.93;;;21.90;99.90;;;;;;5025792;28;20707;-69
2022/05/25 12:43:51;;;;;;;2.27;0.80;;;21.80;99.90;;;;;;5025275;28;20595;-69
2022/05/25 12:49:47;;;;;;;5.90;1.43;;;22.00;99.90;;;;;;5022085;28;20334;-69
2022/05/25 12:52:50;;;;;;;16.07;2.43;;;21.80;99.90;;;;;;5020558;28;20294;-67
2022/05/25 12:55:34;;;;;;;5.10;1.10;;;21.40;99.90;;;;;;5021165;28;20259;-70
2022/05/25 12:58:04;;;;;;;7.90;1.40;;;21.20;99.90;;;;;;5022026;28;20236;-69
2022/05/25 13:00:40;;;;;;;5.27;1.20;;;21.20;99.90;;;;;;5021795;28;20243;-68
2022/05/25 13:03:34;;;;;;;6.90;1.60;;;21.20;99.90;;;;;;5022692;28;20270;-68
2022/05/25 13:06:05;;;;;;;5.83;1.10;;;21.20;99.90;;;;;;5022964;28;20258;-69
2022/05/25 13:09:09;;;;;;;3.63;1.70;;;21.20;99.90;;;;;;5021686;28;20726;-70
2022/05/25 13:11:45;;;;;;;5.10;1.10;;;21.20;99.90;;;;;;5022329;28;20298;-70
2022/05/25 13:14:54;;;;;;;2.80;0.80;;;21.40;99.90;;;;;;5019878;28;20318;-70
2022/05/25 13:17:45;;;;;;;8.63;1.83;;;21.40;99.90;;;;;;5021273;28;20744;-69
2022/05/25 13:20:46;;;;;;;9.40;1.30;;;21.50;99.90;;;;;;5021053;28;20235;-69
2022/05/25 13:23:48;;;;;;;1.20;0.70;;;21.70;99.90;;;;;;5020656;28;20606;-69
2022/05/25 13:26:20;;;;;;;1.80;0.80;;;21.80;99.90;;;;;;5020760;28;20734;-69
2022/05/25 13:28:54;;;;;;;2.07;0.80;;;21.80;99.90;;;;;;5022454;28;20244;-69
2022/05/25 13:31:35;;;;;;;0.80;0.60;;;21.90;99.90;;;;;;5021621;28;20327;-70
2022/05/25 13:34:10;;;;;;;2.80;0.90;;;21.70;99.90;;;;;;5019158;28;20271;-70
2022/05/25 13:36:44;;;;;;;1.30;0.90;;;21.50;99.90;;;;;;5020647;28;20323;-70
2022/05/25 13:39:18;;;;;;;2.03;0.83;;;21.50;99.90;;;;;;5020985;28;20808;-70
2022/05/25 13:41:55;;;;;;;2.17;0.80;;;21.40;99.90;;;;;;5020226;28;20735;-69
2022/05/25 13:44:26;;;;;;;0.90;0.80;;;21.60;99.90;;;;;;5016551;28;20326;-68